sensor_id;sensor_type;location;lat;lon;timestamp;temperature;humidity
10095;DHT22;5086;50.830;7.102;2023-08-20T00:01:55;21.80;99.90
10095;DHT22;5086;50.830;7.102;2023-08-20T00:04:25;21.80;99.90
10095;DHT22;5086;50.830;7.102;2023-08-20T00:06:53;21.90;99.90
10095;DHT22;5086;50.830;7.102;2023-08-20T00:09:20;21.90;99.90
10095;DHT22;5086;50.830;7.102;2023-08-20T00:11:46;21.80;99.90
10095;DHT22;5086;50.830;7.102;2023-08-20T00:14:15;21.90;99.90
10095;DHT22;5086;50.830;7.102;2023-08-20T00:16:45;21.80;99.90
10095;DHT22;5086;50.830;7.102;2023-08-20T00:19:13;21.80;99.90
10095;DHT22;5086;50.830;7.102;2023-08-20T00:21:41;21.80;99.90
10095;DHT22;5086;50.830;7.102;2023-08-20T00:24:11;21.80;99.90
10095;DHT22;5086;50.830;7.102;2023-08-20T00:26:39;21.80;99.90
10095;DHT22;5086;50.830;7.102;2023-08-20T00:29:05;21.80;99.90
10095;DHT22;5086;50.830;7.102;2023-08-20T00:31:32;21.60;99.90
10095;DHT22;5086;50.830;7.102;2023-08-20T00:34:00;21.50;99.90
10095;DHT22;5086;50.830;7.102;2023-08-20T00:36:28;21.40;99.90
10095;DHT22;5086;50.830;7.102;2023-08-20T00:38:55;21.40;99.90
10095;DHT22;5086;50.830;7.102;2023-08-20T00:41:22;21.30;99.90
10095;DHT22;5086;50.830;7.102;2023-08-20T00:43:48;21.20;99.90
10095;DHT22;5086;50.830;7.102;2023-08-20T00:46:15;21.20;99.90
10095;DHT22;5086;50.830;7.102;2023-08-20T00:48:42;21.30;99.90
10095;DHT22;5086;50.830;7.102;2023-08-20T00:51:11;21.20;99.90
10095;DHT22;5086;50.830;7.102;2023-08-20T00:53:37;21.20;99.90
10095;DHT22;5086;50.830;7.102;2023-08-20T00:56:04;21.30;99.90
10095;DHT22;5086;50.830;7.102;2023-08-20T00:58:32;21.30;99.90
10095;DHT22;5086;50.830;7.102;2023-08-20T01:00:59;21.20;99.90
10095;DHT22;5086;50.830;7.102;2023-08-20T01:03:26;21.20;99.90
10095;DHT22;5086;50.830;7.102;2023-08-20T01:05:58;21.20;99.90
10095;DHT22;5086;50.830;7.102;2023-08-20T01:08:38;21.10;99.90
10095;DHT22;5086;50.830;7.102;2023-08-20T01:11:10;21.10;99.90
10095;DHT22;5086;50.830;7.102;2023-08-20T01:13:39;21.10;99.90
10095;DHT22;5086;50.830;7.102;2023-08-20T01:16:05;21.10;99.90
10095;DHT22;5086;50.830;7.102;2023-08-20T01:18:32;21.10;99.90
10095;DHT22;5086;50.830;7.102;2023-08-20T01:21:02;21.20;99.90
10095;DHT22;5086;50.830;7.102;2023-08-20T01:24:09;21.10;99.90
10095;DHT22;5086;50.830;7.102;2023-08-20T01:27:00;21.10;99.90
10095;DHT22;5086;50.830;7.102;2023-08-20T01:29:33;21.00;99.90
10095;DHT22;5086;50.830;7.102;2023-08-20T01:32:02;21.00;99.90
10095;DHT22;5086;50.830;7.102;2023-08-20T01:34:30;20.90;99.90
10095;DHT22;5086;50.830;7.102;2023-08-20T01:36:57;20.90;99.90
10095;DHT22;5086;50.830;7.102;2023-08-20T01:39:24;20.80;99.90
10095;DHT22;5086;50.830;7.102;2023-08-20T01:41:51;20.90;99.90
10095;DHT22;5086;50.830;7.102;2023-08-20T01:44:18;20.90;99.90
10095;DHT22;5086;50.830;7.102;2023-08-20T01:46:46;20.80;99.90
10095;DHT22;5086;50.830;7.102;2023-08-20T01:49:13;20.80;99.90
10095;DHT22;5086;50.830;7.102;2023-08-20T01:51:40;20.80;99.90
10095;DHT22;5086;50.830;7.102;2023-08-20T01:54:07;20.80;99.90
10095;DHT22;5086;50.830;7.102;2023-08-20T01:56:34;20.70;99.90
10095;DHT22;5086;50.830;7.102;2023-08-20T01:59:01;20.60;99.90
10095;DHT22;5086;50.830;7.102;2023-08-20T02:01:28;20.60;99.90
10095;DHT22;5086;50.830;7.102;2023-08-20T02:03:56;20.40;99.90
10095;DHT22;5086;50.830;7.102;2023-08-20T02:06:23;20.40;99.90
10095;DHT22;5086;50.830;7.102;2023-08-20T02:08:50;20.50;99.90
10095;DHT22;5086;50.830;7.102;2023-08-20T02:11:17;20.40;99.90
10095;DHT22;5086;50.830;7.102;2023-08-20T02:13:44;20.40;99.90
10095;DHT22;5086;50.830;7.102;2023-08-20T02:16:11;20.40;99.90
10095;DHT22;5086;50.830;7.102;2023-08-20T02:18:38;20.40;99.90
10095;DHT22;5086;50.830;7.102;2023-08-20T02:21:06;20.40;99.90
10095;DHT22;5086;50.830;7.102;2023-08-20T02:23:33;20.40;99.90
10095;DHT22;5086;50.830;7.102;2023-08-20T02:26:00;20.30;99.90
10095;DHT22;5086;50.830;7.102;2023-08-20T02:28:27;20.30;99.90
10095;DHT22;5086;50.830;7.102;2023-08-20T02:30:54;20.10;99.90
10095;DHT22;5086;50.830;7.102;2023-08-20T02:33:23;20.10;99.90
10095;DHT22;5086;50.830;7.102;2023-08-20T02:35:49;20.10;99.90
10095;DHT22;5086;50.830;7.102;2023-08-20T02:38:18;20.10;99.90
10095;DHT22;5086;50.830;7.102;2023-08-20T02:40:44;20.20;99.90
10095;DHT22;5086;50.830;7.102;2023-08-20T02:43:11;20.20;99.90
10095;DHT22;5086;50.830;7.102;2023-08-20T02:45:41;20.30;99.90
10095;DHT22;5086;50.830;7.102;2023-08-20T02:48:09;20.10;99.90
10095;DHT22;5086;50.830;7.102;2023-08-20T02:50:36;20.10;99.90
10095;DHT22;5086;50.830;7.102;2023-08-20T02:53:03;20.20;99.90
10095;DHT22;5086;50.830;7.102;2023-08-20T02:55:32;20.20;99.90
10095;DHT22;5086;50.830;7.102;2023-08-20T02:57:59;20.10;99.90
10095;DHT22;5086;50.830;7.102;2023-08-20T03:00:26;20.10;99.90
10095;DHT22;5086;50.830;7.102;2023-08-20T03:02:53;20.10;99.90
10095;DHT22;5086;50.830;7.102;2023-08-20T03:05:20;20.00;99.90
10095;DHT22;5086;50.830;7.102;2023-08-20T03:07:47;20.00;99.90
10095;DHT22;5086;50.830;7.102;2023-08-20T03:10:14;20.10;99.90
10095;DHT22;5086;50.830;7.102;2023-08-20T03:12:43;20.10;99.90
10095;DHT22;5086;50.830;7.102;2023-08-20T03:15:10;20.10;99.90
10095;DHT22;5086;50.830;7.102;2023-08-20T03:17:37;20.20;99.90
10095;DHT22;5086;50.830;7.102;2023-08-20T03:20:04;20.20;99.90
10095;DHT22;5086;50.830;7.102;2023-08-20T03:22:32;20.20;99.90
10095;DHT22;5086;50.830;7.102;2023-08-20T03:24:59;20.20;99.90
10095;DHT22;5086;50.830;7.102;2023-08-20T03:27:26;20.30;99.90
10095;DHT22;5086;50.830;7.102;2023-08-20T03:29:54;20.20;99.90
10095;DHT22;5086;50.830;7.102;2023-08-20T03:32:21;20.20;99.90
10095;DHT22;5086;50.830;7.102;2023-08-20T03:34:48;20.20;99.90
10095;DHT22;5086;50.830;7.102;2023-08-20T03:37:15;20.20;99.90
10095;DHT22;5086;50.830;7.102;2023-08-20T03:39:42;20.10;99.90
10095;DHT22;5086;50.830;7.102;2023-08-20T03:42:09;20.00;99.90
10095;DHT22;5086;50.830;7.102;2023-08-20T03:44:36;20.00;99.90
10095;DHT22;5086;50.830;7.102;2023-08-20T03:47:05;20.00;99.90
10095;DHT22;5086;50.830;7.102;2023-08-20T03:49:32;20.00;99.90
10095;DHT22;5086;50.830;7.102;2023-08-20T03:51:59;20.00;99.90
10095;DHT22;5086;50.830;7.102;2023-08-20T03:54:27;20.10;99.90
10095;DHT22;5086;50.830;7.102;2023-08-20T03:56:54;20.10;99.90
10095;DHT22;5086;50.830;7.102;2023-08-20T03:59:21;20.10;99.90
10095;DHT22;5086;50.830;7.102;2023-08-20T04:01:48;20.10;99.90
10095;DHT22;5086;50.830;7.102;2023-08-20T04:04:16;20.10;99.90
10095;DHT22;5086;50.830;7.102;2023-08-20T04:06:43;20.10;99.90
10095;DHT22;5086;50.830;7.102;2023-08-20T04:09:10;20.00;99.90
10095;DHT22;5086;50.830;7.102;2023-08-20T04:11:38;20.00;99.90
10095;DHT22;5086;50.830;7.102;2023-08-20T04:14:05;20.00;99.90
10095;DHT22;5086;50.830;7.102;2023-08-20T04:16:32;20.00;99.90
10095;DHT22;5086;50.830;7.102;2023-08-20T04:18:59;20.00;99.90
10095;DHT22;5086;50.830;7.102;2023-08-20T04:21:27;20.10;99.90
10095;DHT22;5086;50.830;7.102;2023-08-20T04:23:54;20.10;99.90
10095;DHT22;5086;50.830;7.102;2023-08-20T04:26:21;20.10;99.90
10095;DHT22;5086;50.830;7.102;2023-08-20T04:28:47;20.10;99.90
10095;DHT22;5086;50.830;7.102;2023-08-20T04:31:14;20.00;99.90
10095;DHT22;5086;50.830;7.102;2023-08-20T04:33:41;19.90;99.90
10095;DHT22;5086;50.830;7.102;2023-08-20T04:36:08;19.90;99.90
10095;DHT22;5086;50.830;7.102;2023-08-20T04:38:37;20.00;99.90
10095;DHT22;5086;50.830;7.102;2023-08-20T04:41:04;20.00;99.90
10095;DHT22;5086;50.830;7.102;2023-08-20T04:43:31;20.00;99.90
10095;DHT22;5086;50.830;7.102;2023-08-20T04:45:57;20.10;99.90
10095;DHT22;5086;50.830;7.102;2023-08-20T04:48:24;20.00;99.90
10095;DHT22;5086;50.830;7.102;2023-08-20T04:50:51;19.90;99.90
10095;DHT22;5086;50.830;7.102;2023-08-20T04:53:18;19.90;99.90
10095;DHT22;5086;50.830;7.102;2023-08-20T04:55:46;19.90;99.90
10095;DHT22;5086;50.830;7.102;2023-08-20T04:58:13;20.00;99.90
10095;DHT22;5086;50.830;7.102;2023-08-20T05:00:40;20.00;99.90
10095;DHT22;5086;50.830;7.102;2023-08-20T05:03:07;20.00;99.90
10095;DHT22;5086;50.830;7.102;2023-08-20T05:05:33;19.90;99.90
10095;DHT22;5086;50.830;7.102;2023-08-20T05:08:00;20.00;99.90
10095;DHT22;5086;50.830;7.102;2023-08-20T05:10:28;20.00;99.90
10095;DHT22;5086;50.830;7.102;2023-08-20T05:12:56;20.10;99.90
10095;DHT22;5086;50.830;7.102;2023-08-20T05:15:23;20.20;99.90
10095;DHT22;5086;50.830;7.102;2023-08-20T05:17:50;20.10;99.90
10095;DHT22;5086;50.830;7.102;2023-08-20T05:20:17;20.20;99.90
10095;DHT22;5086;50.830;7.102;2023-08-20T05:22:44;20.20;99.90
10095;DHT22;5086;50.830;7.102;2023-08-20T05:25:10;20.30;99.90
10095;DHT22;5086;50.830;7.102;2023-08-20T05:27:37;20.30;99.90
10095;DHT22;5086;50.830;7.102;2023-08-20T05:30:08;20.40;99.90
10095;DHT22;5086;50.830;7.102;2023-08-20T05:32:35;20.50;99.90
10095;DHT22;5086;50.830;7.102;2023-08-20T05:35:02;20.70;99.90
10095;DHT22;5086;50.830;7.102;2023-08-20T05:37:29;20.80;99.90
10095;DHT22;5086;50.830;7.102;2023-08-20T05:39:56;21.00;99.90
10095;DHT22;5086;50.830;7.102;2023-08-20T05:42:23;21.10;99.90
10095;DHT22;5086;50.830;7.102;2023-08-20T05:44:50;21.10;99.90
10095;DHT22;5086;50.830;7.102;2023-08-20T05:47:18;21.20;99.90
10095;DHT22;5086;50.830;7.102;2023-08-20T05:49:45;21.20;99.90
10095;DHT22;5086;50.830;7.102;2023-08-20T05:52:12;21.30;99.90
10095;DHT22;5086;50.830;7.102;2023-08-20T05:54:39;21.50;99.90
10095;DHT22;5086;50.830;7.102;2023-08-20T05:57:06;21.70;99.90
10095;DHT22;5086;50.830;7.102;2023-08-20T05:59:33;21.90;99.90
10095;DHT22;5086;50.830;7.102;2023-08-20T06:02:01;22.10;99.90
10095;DHT22;5086;50.830;7.102;2023-08-20T06:04:29;22.30;99.90
10095;DHT22;5086;50.830;7.102;2023-08-20T06:06:56;22.50;99.90
10095;DHT22;5086;50.830;7.102;2023-08-20T06:09:23;22.60;99.90
10095;DHT22;5086;50.830;7.102;2023-08-20T06:11:50;22.70;99.90
10095;DHT22;5086;50.830;7.102;2023-08-20T06:14:17;22.80;99.90
10095;DHT22;5086;50.830;7.102;2023-08-20T06:16:44;23.00;99.90
10095;DHT22;5086;50.830;7.102;2023-08-20T06:19:13;23.20;99.90
10095;DHT22;5086;50.830;7.102;2023-08-20T06:21:41;23.50;99.90
10095;DHT22;5086;50.830;7.102;2023-08-20T06:24:09;23.50;99.90
10095;DHT22;5086;50.830;7.102;2023-08-20T06:26:36;23.60;99.90
10095;DHT22;5086;50.830;7.102;2023-08-20T06:29:03;23.60;99.90
10095;DHT22;5086;50.830;7.102;2023-08-20T06:31:30;23.60;99.90
10095;DHT22;5086;50.830;7.102;2023-08-20T06:33:57;23.40;99.90
10095;DHT22;5086;50.830;7.102;2023-08-20T06:36:24;23.60;99.90
10095;DHT22;5086;50.830;7.102;2023-08-20T06:38:53;23.80;99.90
10095;DHT22;5086;50.830;7.102;2023-08-20T06:41:20;24.10;99.90
10095;DHT22;5086;50.830;7.102;2023-08-20T06:43:46;24.40;99.90
10095;DHT22;5086;50.830;7.102;2023-08-20T06:46:14;24.50;99.90
10095;DHT22;5086;50.830;7.102;2023-08-20T06:48:41;24.50;99.90
10095;DHT22;5086;50.830;7.102;2023-08-20T06:51:11;24.70;99.90
10095;DHT22;5086;50.830;7.102;2023-08-20T06:53:38;25.00;99.90
10095;DHT22;5086;50.830;7.102;2023-08-20T06:56:07;25.10;99.90
10095;DHT22;5086;50.830;7.102;2023-08-20T06:58:35;25.20;99.90
10095;DHT22;5086;50.830;7.102;2023-08-20T07:01:01;25.30;99.90
10095;DHT22;5086;50.830;7.102;2023-08-20T07:03:34;25.60;99.90
10095;DHT22;5086;50.830;7.102;2023-08-20T07:06:01;25.80;99.90
10095;DHT22;5086;50.830;7.102;2023-08-20T07:08:28;26.00;99.90
10095;DHT22;5086;50.830;7.102;2023-08-20T07:10:55;26.30;99.90
10095;DHT22;5086;50.830;7.102;2023-08-20T07:13:26;26.20;99.90
10095;DHT22;5086;50.830;7.102;2023-08-20T07:15:53;26.50;99.90
10095;DHT22;5086;50.830;7.102;2023-08-20T07:18:20;26.80;99.90
10095;DHT22;5086;50.830;7.102;2023-08-20T07:20:50;26.70;99.90
10095;DHT22;5086;50.830;7.102;2023-08-20T07:23:18;26.90;99.90
10095;DHT22;5086;50.830;7.102;2023-08-20T07:25:45;27.00;99.90
10095;DHT22;5086;50.830;7.102;2023-08-20T07:28:12;26.90;99.90
10095;DHT22;5086;50.830;7.102;2023-08-20T07:30:40;27.20;99.90
10095;DHT22;5086;50.830;7.102;2023-08-20T07:33:08;27.20;99.90
10095;DHT22;5086;50.830;7.102;2023-08-20T07:35:35;27.30;99.90
10095;DHT22;5086;50.830;7.102;2023-08-20T07:38:03;27.10;99.90
10095;DHT22;5086;50.830;7.102;2023-08-20T07:40:30;26.80;99.90
10095;DHT22;5086;50.830;7.102;2023-08-20T07:42:57;26.90;99.90
10095;DHT22;5086;50.830;7.102;2023-08-20T07:45:24;26.80;99.90
10095;DHT22;5086;50.830;7.102;2023-08-20T07:47:52;26.70;99.90
10095;DHT22;5086;50.830;7.102;2023-08-20T07:50:19;26.70;99.90
10095;DHT22;5086;50.830;7.102;2023-08-20T07:52:46;26.50;99.90
10095;DHT22;5086;50.830;7.102;2023-08-20T07:55:13;26.60;99.90
10095;DHT22;5086;50.830;7.102;2023-08-20T07:57:40;26.60;99.90
10095;DHT22;5086;50.830;7.102;2023-08-20T08:00:08;26.60;99.90
10095;DHT22;5086;50.830;7.102;2023-08-20T08:02:38;26.60;99.90
10095;DHT22;5086;50.830;7.102;2023-08-20T08:05:07;26.50;99.90
10095;DHT22;5086;50.830;7.102;2023-08-20T08:07:34;26.40;99.90
10095;DHT22;5086;50.830;7.102;2023-08-20T08:10:01;26.40;99.90
10095;DHT22;5086;50.830;7.102;2023-08-20T08:12:29;26.40;99.90
10095;DHT22;5086;50.830;7.102;2023-08-20T08:14:55;26.20;99.90
10095;DHT22;5086;50.830;7.102;2023-08-20T08:17:22;26.10;99.90
10095;DHT22;5086;50.830;7.102;2023-08-20T08:19:49;26.40;99.90
10095;DHT22;5086;50.830;7.102;2023-08-20T08:22:20;26.70;99.90
10095;DHT22;5086;50.830;7.102;2023-08-20T08:24:55;26.60;99.90
10095;DHT22;5086;50.830;7.102;2023-08-20T08:27:22;26.50;99.90
10095;DHT22;5086;50.830;7.102;2023-08-20T08:29:50;26.50;99.90
10095;DHT22;5086;50.830;7.102;2023-08-20T08:32:17;26.80;99.90
10095;DHT22;5086;50.830;7.102;2023-08-20T08:34:44;26.80;99.90
10095;DHT22;5086;50.830;7.102;2023-08-20T08:37:11;26.80;99.90
10095;DHT22;5086;50.830;7.102;2023-08-20T08:39:39;26.80;99.90
10095;DHT22;5086;50.830;7.102;2023-08-20T08:42:06;26.50;99.90
10095;DHT22;5086;50.830;7.102;2023-08-20T08:44:34;26.60;99.90
10095;DHT22;5086;50.830;7.102;2023-08-20T08:47:04;26.60;99.90
10095;DHT22;5086;50.830;7.102;2023-08-20T08:49:33;26.70;99.90
10095;DHT22;5086;50.830;7.102;2023-08-20T08:52:01;26.90;99.90
10095;DHT22;5086;50.830;7.102;2023-08-20T08:54:30;27.00;99.90
10095;DHT22;5086;50.830;7.102;2023-08-20T08:57:00;26.90;99.90
10095;DHT22;5086;50.830;7.102;2023-08-20T08:59:27;26.80;99.90
10095;DHT22;5086;50.830;7.102;2023-08-20T09:01:54;27.00;99.90
10095;DHT22;5086;50.830;7.102;2023-08-20T09:04:22;27.00;99.90
10095;DHT22;5086;50.830;7.102;2023-08-20T09:06:50;27.10;99.90
10095;DHT22;5086;50.830;7.102;2023-08-20T09:09:19;27.10;99.90
10095;DHT22;5086;50.830;7.102;2023-08-20T09:11:49;27.00;99.90
10095;DHT22;5086;50.830;7.102;2023-08-20T09:14:27;26.90;99.90
10095;DHT22;5086;50.830;7.102;2023-08-20T09:16:55;26.90;99.90
10095;DHT22;5086;50.830;7.102;2023-08-20T09:19:22;27.10;99.90
10095;DHT22;5086;50.830;7.102;2023-08-20T09:21:49;26.90;99.90
10095;DHT22;5086;50.830;7.102;2023-08-20T09:24:26;27.00;99.90
10095;DHT22;5086;50.830;7.102;2023-08-20T09:26:57;27.20;99.90
10095;DHT22;5086;50.830;7.102;2023-08-20T09:29:26;27.50;99.90
10095;DHT22;5086;50.830;7.102;2023-08-20T09:32:00;27.60;99.90
10095;DHT22;5086;50.830;7.102;2023-08-20T09:34:36;27.50;99.90
10095;DHT22;5086;50.830;7.102;2023-08-20T09:37:05;27.30;99.90
10095;DHT22;5086;50.830;7.102;2023-08-20T09:39:34;27.20;99.90
10095;DHT22;5086;50.830;7.102;2023-08-20T09:42:01;27.50;99.90
10095;DHT22;5086;50.830;7.102;2023-08-20T09:44:33;27.60;99.90
10095;DHT22;5086;50.830;7.102;2023-08-20T09:47:02;27.70;99.90
10095;DHT22;5086;50.830;7.102;2023-08-20T09:49:30;27.70;99.90
10095;DHT22;5086;50.830;7.102;2023-08-20T09:52:01;27.80;99.90
10095;DHT22;5086;50.830;7.102;2023-08-20T09:54:36;27.60;99.90
10095;DHT22;5086;50.830;7.102;2023-08-20T09:57:09;27.70;99.90
10095;DHT22;5086;50.830;7.102;2023-08-20T09:59:40;27.70;99.90
10095;DHT22;5086;50.830;7.102;2023-08-20T10:02:10;28.00;99.90
10095;DHT22;5086;50.830;7.102;2023-08-20T10:04:38;28.10;99.90
10095;DHT22;5086;50.830;7.102;2023-08-20T10:07:05;28.00;99.90
10095;DHT22;5086;50.830;7.102;2023-08-20T10:09:33;28.10;99.90
10095;DHT22;5086;50.830;7.102;2023-08-20T10:12:01;28.00;99.90
10095;DHT22;5086;50.830;7.102;2023-08-20T10:14:28;27.90;99.90
10095;DHT22;5086;50.830;7.102;2023-08-20T10:16:57;27.70;99.90
10095;DHT22;5086;50.830;7.102;2023-08-20T10:19:25;27.80;99.90
10095;DHT22;5086;50.830;7.102;2023-08-20T10:21:52;27.90;99.90
10095;DHT22;5086;50.830;7.102;2023-08-20T10:24:19;27.90;99.90
10095;DHT22;5086;50.830;7.102;2023-08-20T10:26:46;28.10;99.90
10095;DHT22;5086;50.830;7.102;2023-08-20T10:29:36;28.20;99.90
10095;DHT22;5086;50.830;7.102;2023-08-20T10:32:06;28.30;99.90
10095;DHT22;5086;50.830;7.102;2023-08-20T10:34:33;28.50;99.90
10095;DHT22;5086;50.830;7.102;2023-08-20T10:37:10;28.60;99.90
10095;DHT22;5086;50.830;7.102;2023-08-20T10:39:37;28.70;99.90
10095;DHT22;5086;50.830;7.102;2023-08-20T10:42:22;28.70;99.90
10095;DHT22;5086;50.830;7.102;2023-08-20T10:45:00;28.60;99.90
10095;DHT22;5086;50.830;7.102;2023-08-20T10:47:37;28.40;99.90
10095;DHT22;5086;50.830;7.102;2023-08-20T10:50:08;28.40;99.90
10095;DHT22;5086;50.830;7.102;2023-08-20T10:52:38;28.30;99.90
10095;DHT22;5086;50.830;7.102;2023-08-20T10:55:06;28.20;99.90
10095;DHT22;5086;50.830;7.102;2023-08-20T10:57:34;28.20;99.90
10095;DHT22;5086;50.830;7.102;2023-08-20T11:00:03;28.30;99.90
10095;DHT22;5086;50.830;7.102;2023-08-20T11:02:37;28.40;99.90
10095;DHT22;5086;50.830;7.102;2023-08-20T11:05:09;28.40;99.90
10095;DHT22;5086;50.830;7.102;2023-08-20T11:07:42;28.40;99.90
10095;DHT22;5086;50.830;7.102;2023-08-20T11:10:10;28.40;99.90
10095;DHT22;5086;50.830;7.102;2023-08-20T11:12:38;28.30;99.90
10095;DHT22;5086;50.830;7.102;2023-08-20T11:15:05;28.20;99.90
10095;DHT22;5086;50.830;7.102;2023-08-20T11:17:32;28.10;99.90
10095;DHT22;5086;50.830;7.102;2023-08-20T11:20:01;28.20;99.90
10095;DHT22;5086;50.830;7.102;2023-08-20T11:22:30;28.00;99.90
10095;DHT22;5086;50.830;7.102;2023-08-20T11:24:57;28.20;99.90
10095;DHT22;5086;50.830;7.102;2023-08-20T11:27:26;28.20;99.90
10095;DHT22;5086;50.830;7.102;2023-08-20T11:29:53;28.20;99.90
10095;DHT22;5086;50.830;7.102;2023-08-20T11:32:22;28.10;99.90
10095;DHT22;5086;50.830;7.102;2023-08-20T11:34:49;28.20;99.90
10095;DHT22;5086;50.830;7.102;2023-08-20T11:37:20;28.30;99.90
10095;DHT22;5086;50.830;7.102;2023-08-20T11:39:47;28.20;99.90
10095;DHT22;5086;50.830;7.102;2023-08-20T11:42:14;28.20;99.90
10095;DHT22;5086;50.830;7.102;2023-08-20T11:44:43;28.30;99.90
10095;DHT22;5086;50.830;7.102;2023-08-20T11:47:14;28.20;99.90
10095;DHT22;5086;50.830;7.102;2023-08-20T11:49:41;28.20;99.90
10095;DHT22;5086;50.830;7.102;2023-08-20T11:52:08;28.00;99.90
10095;DHT22;5086;50.830;7.102;2023-08-20T11:54:36;28.20;99.90
10095;DHT22;5086;50.830;7.102;2023-08-20T11:57:06;28.20;99.90
10095;DHT22;5086;50.830;7.102;2023-08-20T11:59:33;28.30;99.90
10095;DHT22;5086;50.830;7.102;2023-08-20T12:02:01;28.30;99.90
10095;DHT22;5086;50.830;7.102;2023-08-20T12:04:30;28.30;99.90
10095;DHT22;5086;50.830;7.102;2023-08-20T12:07:04;28.50;99.90
10095;DHT22;5086;50.830;7.102;2023-08-20T12:09:32;28.40;99.90
10095;DHT22;5086;50.830;7.102;2023-08-20T12:12:01;28.10;99.90
10095;DHT22;5086;50.830;7.102;2023-08-20T12:14:28;28.30;99.90
10095;DHT22;5086;50.830;7.102;2023-08-20T12:16:55;28.40;99.90
10095;DHT22;5086;50.830;7.102;2023-08-20T12:19:22;28.40;99.90
10095;DHT22;5086;50.830;7.102;2023-08-20T12:21:49;28.40;99.90
10095;DHT22;5086;50.830;7.102;2023-08-20T12:24:17;28.50;99.90
10095;DHT22;5086;50.830;7.102;2023-08-20T12:26:45;28.50;99.90
10095;DHT22;5086;50.830;7.102;2023-08-20T12:29:13;28.50;99.90
10095;DHT22;5086;50.830;7.102;2023-08-20T12:31:40;28.50;99.90
10095;DHT22;5086;50.830;7.102;2023-08-20T12:34:08;28.60;99.90
10095;DHT22;5086;50.830;7.102;2023-08-20T12:36:35;28.50;99.90
10095;DHT22;5086;50.830;7.102;2023-08-20T12:39:03;28.40;99.90
10095;DHT22;5086;50.830;7.102;2023-08-20T12:41:30;28.50;99.90
10095;DHT22;5086;50.830;7.102;2023-08-20T12:43:57;28.40;99.90
10095;DHT22;5086;50.830;7.102;2023-08-20T12:46:26;28.40;99.90
10095;DHT22;5086;50.830;7.102;2023-08-20T12:48:53;28.40;99.90
10095;DHT22;5086;50.830;7.102;2023-08-20T12:51:39;28.50;99.90
10095;DHT22;5086;50.830;7.102;2023-08-20T12:54:06;28.70;99.90
10095;DHT22;5086;50.830;7.102;2023-08-20T12:56:34;28.70;99.90
10095;DHT22;5086;50.830;7.102;2023-08-20T12:59:00;28.80;99.90
10095;DHT22;5086;50.830;7.102;2023-08-20T13:01:28;28.70;99.90
10095;DHT22;5086;50.830;7.102;2023-08-20T13:03:55;28.70;99.90
10095;DHT22;5086;50.830;7.102;2023-08-20T13:06:23;28.60;99.90
10095;DHT22;5086;50.830;7.102;2023-08-20T13:08:52;28.50;99.90
10095;DHT22;5086;50.830;7.102;2023-08-20T13:11:20;28.10;99.90
10095;DHT22;5086;50.830;7.102;2023-08-20T13:13:48;27.90;99.90
10095;DHT22;5086;50.830;7.102;2023-08-20T13:16:17;27.80;99.90
10095;DHT22;5086;50.830;7.102;2023-08-20T13:18:45;27.70;99.90
10095;DHT22;5086;50.830;7.102;2023-08-20T13:21:12;27.80;99.90
10095;DHT22;5086;50.830;7.102;2023-08-20T13:23:38;27.90;99.90
10095;DHT22;5086;50.830;7.102;2023-08-20T13:26:07;27.90;99.90
10095;DHT22;5086;50.830;7.102;2023-08-20T13:28:34;28.00;99.90
10095;DHT22;5086;50.830;7.102;2023-08-20T13:31:01;28.10;99.90
10095;DHT22;5086;50.830;7.102;2023-08-20T13:33:28;28.30;99.90
10095;DHT22;5086;50.830;7.102;2023-08-20T13:35:55;28.50;99.90
10095;DHT22;5086;50.830;7.102;2023-08-20T13:38:23;28.60;99.90
10095;DHT22;5086;50.830;7.102;2023-08-20T13:40:50;28.50;99.90
10095;DHT22;5086;50.830;7.102;2023-08-20T13:43:19;28.60;99.90
10095;DHT22;5086;50.830;7.102;2023-08-20T13:45:45;28.70;99.90
10095;DHT22;5086;50.830;7.102;2023-08-20T13:48:12;28.80;99.90
10095;DHT22;5086;50.830;7.102;2023-08-20T13:50:39;28.90;99.90
10095;DHT22;5086;50.830;7.102;2023-08-20T13:53:06;29.00;99.90
10095;DHT22;5086;50.830;7.102;2023-08-20T13:55:33;29.10;99.90
10095;DHT22;5086;50.830;7.102;2023-08-20T13:58:00;29.00;99.90
10095;DHT22;5086;50.830;7.102;2023-08-20T14:00:29;28.90;99.90
10095;DHT22;5086;50.830;7.102;2023-08-20T14:02:56;28.80;99.90
10095;DHT22;5086;50.830;7.102;2023-08-20T14:05:24;28.80;99.90
10095;DHT22;5086;50.830;7.102;2023-08-20T14:07:51;28.70;99.90
10095;DHT22;5086;50.830;7.102;2023-08-20T14:10:19;28.70;99.90
10095;DHT22;5086;50.830;7.102;2023-08-20T14:12:47;28.70;99.90
10095;DHT22;5086;50.830;7.102;2023-08-20T14:15:17;28.70;99.90
10095;DHT22;5086;50.830;7.102;2023-08-20T14:17:46;28.70;99.90
10095;DHT22;5086;50.830;7.102;2023-08-20T14:20:14;28.70;99.90
10095;DHT22;5086;50.830;7.102;2023-08-20T14:22:41;28.70;99.90
10095;DHT22;5086;50.830;7.102;2023-08-20T14:25:08;28.70;99.90
10095;DHT22;5086;50.830;7.102;2023-08-20T14:27:35;28.80;99.90
10095;DHT22;5086;50.830;7.102;2023-08-20T14:30:02;28.90;99.90
10095;DHT22;5086;50.830;7.102;2023-08-20T14:32:30;28.90;99.90
10095;DHT22;5086;50.830;7.102;2023-08-20T14:34:58;28.80;99.90
10095;DHT22;5086;50.830;7.102;2023-08-20T14:37:28;28.90;99.90
10095;DHT22;5086;50.830;7.102;2023-08-20T14:39:55;28.90;99.90
10095;DHT22;5086;50.830;7.102;2023-08-20T14:42:22;28.80;99.90
10095;DHT22;5086;50.830;7.102;2023-08-20T14:44:49;28.70;99.90
10095;DHT22;5086;50.830;7.102;2023-08-20T14:47:20;28.80;99.90
10095;DHT22;5086;50.830;7.102;2023-08-20T14:49:47;28.80;99.90
10095;DHT22;5086;50.830;7.102;2023-08-20T14:52:15;28.80;99.90
10095;DHT22;5086;50.830;7.102;2023-08-20T14:54:42;28.80;99.90
10095;DHT22;5086;50.830;7.102;2023-08-20T14:57:09;28.80;99.90
10095;DHT22;5086;50.830;7.102;2023-08-20T14:59:36;28.90;99.90
10095;DHT22;5086;50.830;7.102;2023-08-20T15:02:03;28.80;99.90
10095;DHT22;5086;50.830;7.102;2023-08-20T15:04:30;28.80;99.90
10095;DHT22;5086;50.830;7.102;2023-08-20T15:06:56;28.60;99.90
10095;DHT22;5086;50.830;7.102;2023-08-20T15:09:25;28.30;99.90
10095;DHT22;5086;50.830;7.102;2023-08-20T15:11:52;28.00;99.90
10095;DHT22;5086;50.830;7.102;2023-08-20T15:14:19;27.90;99.90
10095;DHT22;5086;50.830;7.102;2023-08-20T15:16:46;27.70;99.90
10095;DHT22;5086;50.830;7.102;2023-08-20T15:19:13;27.60;99.90
10095;DHT22;5086;50.830;7.102;2023-08-20T15:21:41;27.60;99.90
10095;DHT22;5086;50.830;7.102;2023-08-20T15:24:07;27.50;99.90
10095;DHT22;5086;50.830;7.102;2023-08-20T15:26:36;27.50;99.90
10095;DHT22;5086;50.830;7.102;2023-08-20T15:29:03;27.30;99.90
10095;DHT22;5086;50.830;7.102;2023-08-20T15:31:30;27.20;99.90
10095;DHT22;5086;50.830;7.102;2023-08-20T15:33:57;27.20;99.90
10095;DHT22;5086;50.830;7.102;2023-08-20T15:36:24;27.20;99.90
10095;DHT22;5086;50.830;7.102;2023-08-20T15:38:50;27.20;99.90
10095;DHT22;5086;50.830;7.102;2023-08-20T15:41:18;27.00;99.90
10095;DHT22;5086;50.830;7.102;2023-08-20T15:43:47;27.00;99.90
10095;DHT22;5086;50.830;7.102;2023-08-20T15:46:14;27.00;99.90
10095;DHT22;5086;50.830;7.102;2023-08-20T15:48:41;27.00;99.90
10095;DHT22;5086;50.830;7.102;2023-08-20T15:51:08;26.90;99.90